sensor_id;sensor_type;location;lat;lon;timestamp;temperature;humidity
71039;SHT30;58692;43.212;27.908;2022-09-20T00:00:32;15.83;57.95
71039;SHT30;58692;43.212;27.908;2022-09-20T00:02:59;15.79;58.12
71039;SHT30;58692;43.212;27.908;2022-09-20T00:05:24;15.76;58.42
71039;SHT30;58692;43.212;27.908;2022-09-20T00:07:50;15.73;58.43
71039;SHT30;58692;43.212;27.908;2022-09-20T00:10:16;15.74;58.49
71039;SHT30;58692;43.212;27.908;2022-09-20T00:12:41;15.77;58.57
71039;SHT30;58692;43.212;27.908;2022-09-20T00:15:07;15.77;58.58
71039;SHT30;58692;43.212;27.908;2022-09-20T00:17:33;15.74;58.75
71039;SHT30;58692;43.212;27.908;2022-09-20T00:19:58;15.67;59.03
71039;SHT30;58692;43.212;27.908;2022-09-20T00:22:24;15.60;59.21
71039;SHT30;58692;43.212;27.908;2022-09-20T00:24:49;15.73;58.95
71039;SHT30;58692;43.212;27.908;2022-09-20T00:27:15;15.73;58.99
71039;SHT30;58692;43.212;27.908;2022-09-20T00:29:41;15.59;59.24
71039;SHT30;58692;43.212;27.908;2022-09-20T00:32:06;15.62;59.31
71039;SHT30;58692;43.212;27.908;2022-09-20T00:34:32;15.59;59.39
71039;SHT30;58692;43.212;27.908;2022-09-20T00:37:13;15.59;59.47
71039;SHT30;58692;43.212;27.908;2022-09-20T00:39:38;15.60;59.49
71039;SHT30;58692;43.212;27.908;2022-09-20T00:42:04;15.60;59.44
71039;SHT30;58692;43.212;27.908;2022-09-20T00:52:43;15.56;59.73
71039;SHT30;58692;43.212;27.908;2022-09-20T00:55:10;15.52;59.68
71039;SHT30;58692;43.212;27.908;2022-09-20T00:57:37;15.52;59.73
71039;SHT30;58692;43.212;27.908;2022-09-20T01:00:06;15.50;59.64
71039;SHT30;58692;43.212;27.908;2022-09-20T01:02:34;15.40;59.85
71039;SHT30;58692;43.212;27.908;2022-09-20T01:05:01;15.42;59.86
71039;SHT30;58692;43.212;27.908;2022-09-20T01:07:27;15.46;59.72
71039;SHT30;58692;43.212;27.908;2022-09-20T01:09:54;15.43;59.88
71039;SHT30;58692;43.212;27.908;2022-09-20T01:12:25;15.42;59.90
71039;SHT30;58692;43.212;27.908;2022-09-20T01:14:52;15.42;59.98
71039;SHT30;58692;43.212;27.908;2022-09-20T01:17:22;15.36;60.27
71039;SHT30;58692;43.212;27.908;2022-09-20T01:20:10;15.23;60.38
71039;SHT30;58692;43.212;27.908;2022-09-20T01:28:29;15.23;60.60
71039;SHT30;58692;43.212;27.908;2022-09-20T01:31:08;15.18;60.99
71039;SHT30;58692;43.212;27.908;2022-09-20T01:33:53;15.18;61.07
71039;SHT30;58692;43.212;27.908;2022-09-20T01:39:00;15.23;61.08
71039;SHT30;58692;43.212;27.908;2022-09-20T01:41:33;15.23;61.00
71039;SHT30;58692;43.212;27.908;2022-09-20T01:46:28;15.15;61.01
71039;SHT30;58692;43.212;27.908;2022-09-20T01:54:46;15.18;60.90
71039;SHT30;58692;43.212;27.908;2022-09-20T01:57:48;15.11;61.22
71039;SHT30;58692;43.212;27.908;2022-09-20T02:00:26;15.12;61.23
71039;SHT30;58692;43.212;27.908;2022-09-20T02:03:36;15.18;61.16
71039;SHT30;58692;43.212;27.908;2022-09-20T02:05:46;15.26;60.96
71039;SHT30;58692;43.212;27.908;2022-09-20T02:08:29;15.22;60.91
71039;SHT30;58692;43.212;27.908;2022-09-20T02:11:15;15.22;61.03
71039;SHT30;58692;43.212;27.908;2022-09-20T02:13:47;15.21;61.11
71039;SHT30;58692;43.212;27.908;2022-09-20T02:19:37;15.21;61.10
71039;SHT30;58692;43.212;27.908;2022-09-20T02:24:43;15.33;60.78
71039;SHT30;58692;43.212;27.908;2022-09-20T02:27:23;15.33;60.76
71039;SHT30;58692;43.212;27.908;2022-09-20T02:29:55;15.36;60.78
71039;SHT30;58692;43.212;27.908;2022-09-20T02:33:09;15.21;60.96
71039;SHT30;58692;43.212;27.908;2022-09-20T02:35:17;15.16;61.45
71039;SHT30;58692;43.212;27.908;2022-09-20T02:38:00;15.13;61.48
71039;SHT30;58692;43.212;27.908;2022-09-20T02:40:39;15.06;61.58
71039;SHT30;58692;43.212;27.908;2022-09-20T02:43:28;15.09;61.43
71039;SHT30;58692;43.212;27.908;2022-09-20T02:51:31;15.13;60.81
71039;SHT30;58692;43.212;27.908;2022-09-20T02:59:40;15.11;60.83
71039;SHT30;58692;43.212;27.908;2022-09-20T03:05:05;14.98;61.11
71039;SHT30;58692;43.212;27.908;2022-09-20T03:10:42;15.08;61.10
71039;SHT30;58692;43.212;27.908;2022-09-20T03:18:40;15.08;61.70
71039;SHT30;58692;43.212;27.908;2022-09-20T03:21:24;15.06;61.82
71039;SHT30;58692;43.212;27.908;2022-09-20T03:31:35;15.06;61.64
71039;SHT30;58692;43.212;27.908;2022-09-20T03:34:19;15.03;61.92
71039;SHT30;58692;43.212;27.908;2022-09-20T03:37:07;15.08;61.82
71039;SHT30;58692;43.212;27.908;2022-09-20T03:40:07;14.96;62.09
71039;SHT30;58692;43.212;27.908;2022-09-20T03:42:27;15.01;62.19
71039;SHT30;58692;43.212;27.908;2022-09-20T03:50:54;14.91;62.40
71039;SHT30;58692;43.212;27.908;2022-09-20T04:04:30;14.89;62.38
71039;SHT30;58692;43.212;27.908;2022-09-20T04:07:32;14.93;62.28
71039;SHT30;58692;43.212;27.908;2022-09-20T04:10:10;14.91;62.55
71039;SHT30;58692;43.212;27.908;2022-09-20T04:15:32;14.82;62.82
71039;SHT30;58692;43.212;27.908;2022-09-20T04:18:02;14.79;62.75
71039;SHT30;58692;43.212;27.908;2022-09-20T04:20:32;14.77;63.14
71039;SHT30;58692;43.212;27.908;2022-09-20T04:23:07;14.79;63.25
71039;SHT30;58692;43.212;27.908;2022-09-20T04:25:40;14.82;63.26
71039;SHT30;58692;43.212;27.908;2022-09-20T04:28:25;14.87;63.33
71039;SHT30;58692;43.212;27.908;2022-09-20T04:31:01;14.85;63.76
71039;SHT30;58692;43.212;27.908;2022-09-20T04:33:34;14.78;63.81
71039;SHT30;58692;43.212;27.908;2022-09-20T04:36:22;14.78;63.85
71039;SHT30;58692;43.212;27.908;2022-09-20T04:39:38;14.78;64.03
71039;SHT30;58692;43.212;27.908;2022-09-20T04:45:00;14.75;63.46
71039;SHT30;58692;43.212;27.908;2022-09-20T04:56:00;14.31;64.21
71039;SHT30;58692;43.212;27.908;2022-09-20T04:58:33;14.50;64.05
71039;SHT30;58692;43.212;27.908;2022-09-20T05:04:30;14.50;63.97
71039;SHT30;58692;43.212;27.908;2022-09-20T05:18:46;14.38;63.64
71039;SHT30;58692;43.212;27.908;2022-09-20T05:27:14;14.47;63.42
71039;SHT30;58692;43.212;27.908;2022-09-20T05:32:45;14.44;63.15
71039;SHT30;58692;43.212;27.908;2022-09-20T05:35:16;14.37;62.96
71039;SHT30;58692;43.212;27.908;2022-09-20T05:37:50;14.58;62.46
71039;SHT30;58692;43.212;27.908;2022-09-20T05:40:24;15.56;60.06
71039;SHT30;58692;43.212;27.908;2022-09-20T05:43:01;16.73;56.27
71039;SHT30;58692;43.212;27.908;2022-09-20T05:48:16;17.55;53.31
71039;SHT30;58692;43.212;27.908;2022-09-20T05:50:58;18.16;51.83
71039;SHT30;58692;43.212;27.908;2022-09-20T06:05:00;19.44;47.93
71039;SHT30;58692;43.212;27.908;2022-09-20T06:12:56;19.82;47.04
71039;SHT30;58692;43.212;27.908;2022-09-20T06:23:41;21.04;44.37
71039;SHT30;58692;43.212;27.908;2022-09-20T06:26:13;20.95;44.42
71039;SHT30;58692;43.212;27.908;2022-09-20T06:28:45;21.31;43.81
71039;SHT30;58692;43.212;27.908;2022-09-20T06:31:13;20.98;43.87
71039;SHT30;58692;43.212;27.908;2022-09-20T06:33:52;20.51;44.78
71039;SHT30;58692;43.212;27.908;2022-09-20T06:42:13;20.20;45.15
71039;SHT30;58692;43.212;27.908;2022-09-20T06:44:38;19.55;46.64
71039;SHT30;58692;43.212;27.908;2022-09-20T06:47:08;19.81;46.57
71039;SHT30;58692;43.212;27.908;2022-09-20T06:49:34;20.12;46.11
71039;SHT30;58692;43.212;27.908;2022-09-20T06:52:03;20.04;46.04
71039;SHT30;58692;43.212;27.908;2022-09-20T06:54:29;20.34;45.67
71039;SHT30;58692;43.212;27.908;2022-09-20T06:56:54;20.32;45.87
71039;SHT30;58692;43.212;27.908;2022-09-20T06:59:20;21.18;43.73
71039;SHT30;58692;43.212;27.908;2022-09-20T07:01:46;21.81;42.12
71039;SHT30;58692;43.212;27.908;2022-09-20T07:04:12;22.43;40.88
71039;SHT30;58692;43.212;27.908;2022-09-20T07:06:40;22.92;40.04
71039;SHT30;58692;43.212;27.908;2022-09-20T07:09:10;22.95;39.61
71039;SHT30;58692;43.212;27.908;2022-09-20T07:11:36;23.26;38.96
71039;SHT30;58692;43.212;27.908;2022-09-20T07:14:01;22.27;40.55
71039;SHT30;58692;43.212;27.908;2022-09-20T07:16:28;22.36;40.28
71039;SHT30;58692;43.212;27.908;2022-09-20T07:18:53;23.11;39.57
71039;SHT30;58692;43.212;27.908;2022-09-20T07:21:20;22.91;39.12
71039;SHT30;58692;43.212;27.908;2022-09-20T07:23:46;22.56;39.49
71039;SHT30;58692;43.212;27.908;2022-09-20T07:26:28;22.53;39.24
71039;SHT30;58692;43.212;27.908;2022-09-20T07:28:55;23.21;38.22
71039;SHT30;58692;43.212;27.908;2022-09-20T07:31:23;23.84;36.85
71039;SHT30;58692;43.212;27.908;2022-09-20T07:33:49;23.65;36.94
71039;SHT30;58692;43.212;27.908;2022-09-20T07:36:15;24.13;36.01
71039;SHT30;58692;43.212;27.908;2022-09-20T07:38:41;24.23;35.75
71039;SHT30;58692;43.212;27.908;2022-09-20T07:41:08;24.57;34.76
71039;SHT30;58692;43.212;27.908;2022-09-20T07:43:35;24.86;33.41
71039;SHT30;58692;43.212;27.908;2022-09-20T07:46:01;25.15;33.02
71039;SHT30;58692;43.212;27.908;2022-09-20T07:48:31;25.40;33.01
71039;SHT30;58692;43.212;27.908;2022-09-20T07:51:03;25.49;32.64
71039;SHT30;58692;43.212;27.908;2022-09-20T07:53:29;25.80;32.43
71039;SHT30;58692;43.212;27.908;2022-09-20T07:55:57;25.86;32.57
71039;SHT30;58692;43.212;27.908;2022-09-20T07:58:31;26.89;31.49
71039;SHT30;58692;43.212;27.908;2022-09-20T08:00:59;26.48;31.74
71039;SHT30;58692;43.212;27.908;2022-09-20T08:03:26;26.17;32.79
71039;SHT30;58692;43.212;27.908;2022-09-20T08:05:59;25.86;32.80
71039;SHT30;58692;43.212;27.908;2022-09-20T08:08:24;26.02;33.01
71039;SHT30;58692;43.212;27.908;2022-09-20T08:10:50;25.15;34.16
71039;SHT30;58692;43.212;27.908;2022-09-20T08:13:16;24.71;34.89
71039;SHT30;58692;43.212;27.908;2022-09-20T08:15:41;25.49;33.44
71039;SHT30;58692;43.212;27.908;2022-09-20T08:18:09;25.40;33.62
71039;SHT30;58692;43.212;27.908;2022-09-20T08:20:41;25.67;33.64
71039;SHT30;58692;43.212;27.908;2022-09-20T08:23:06;26.49;32.16
71039;SHT30;58692;43.212;27.908;2022-09-20T08:25:34;25.87;32.56
71039;SHT30;58692;43.212;27.908;2022-09-20T08:27:59;25.62;32.11
71039;SHT30;58692;43.212;27.908;2022-09-20T08:30:25;26.38;30.61
71039;SHT30;58692;43.212;27.908;2022-09-20T08:32:51;26.69;30.33
71039;SHT30;58692;43.212;27.908;2022-09-20T08:35:18;26.16;30.78
71039;SHT30;58692;43.212;27.908;2022-09-20T08:37:43;27.02;29.28
71039;SHT30;58692;43.212;27.908;2022-09-20T08:40:12;25.60;31.00
71039;SHT30;58692;43.212;27.908;2022-09-20T08:42:40;24.61;32.58
71039;SHT30;58692;43.212;27.908;2022-09-20T08:45:24;24.68;32.52
71039;SHT30;58692;43.212;27.908;2022-09-20T08:47:59;25.47;31.65
71039;SHT30;58692;43.212;27.908;2022-09-20T08:50:27;25.90;31.20
71039;SHT30;58692;43.212;27.908;2022-09-20T08:52:55;26.07;30.49
71039;SHT30;58692;43.212;27.908;2022-09-20T08:55:25;25.83;30.21
71039;SHT30;58692;43.212;27.908;2022-09-20T08:57:54;26.17;30.51
71039;SHT30;58692;43.212;27.908;2022-09-20T09:00:25;26.34;30.02
71039;SHT30;58692;43.212;27.908;2022-09-20T09:02:55;26.27;30.22
71039;SHT30;58692;43.212;27.908;2022-09-20T09:08:28;26.63;29.77
71039;SHT30;58692;43.212;27.908;2022-09-20T09:10:58;26.27;30.07
71039;SHT30;58692;43.212;27.908;2022-09-20T09:16:18;26.98;29.16
71039;SHT30;58692;43.212;27.908;2022-09-20T09:18:45;27.22;28.87
71039;SHT30;58692;43.212;27.908;2022-09-20T09:21:23;27.22;29.12
71039;SHT30;58692;43.212;27.908;2022-09-20T09:24:00;27.61;28.64
71039;SHT30;58692;43.212;27.908;2022-09-20T09:26:28;27.50;28.18
71039;SHT30;58692;43.212;27.908;2022-09-20T09:29:16;27.80;27.45
71039;SHT30;58692;43.212;27.908;2022-09-20T09:31:43;26.89;28.07
71039;SHT30;58692;43.212;27.908;2022-09-20T09:34:30;27.93;26.50
71039;SHT30;58692;43.212;27.908;2022-09-20T09:36:56;27.85;26.07
71039;SHT30;58692;43.212;27.908;2022-09-20T09:41:49;27.67;24.67
71039;SHT30;58692;43.212;27.908;2022-09-20T09:44:30;28.11;24.32
71039;SHT30;58692;43.212;27.908;2022-09-20T09:46:58;28.68;23.83
71039;SHT30;58692;43.212;27.908;2022-09-20T09:49:27;28.80;23.74
71039;SHT30;58692;43.212;27.908;2022-09-20T09:52:14;29.31;23.82
71039;SHT30;58692;43.212;27.908;2022-09-20T09:54:46;28.65;23.76
71039;SHT30;58692;43.212;27.908;2022-09-20T10:02:52;29.86;23.66
71039;SHT30;58692;43.212;27.908;2022-09-20T10:08:15;28.93;24.03
71039;SHT30;58692;43.212;27.908;2022-09-20T10:11:12;29.89;22.99
71039;SHT30;58692;43.212;27.908;2022-09-20T10:13:55;29.71;23.01
71039;SHT30;58692;43.212;27.908;2022-09-20T10:16:29;29.46;23.69
71039;SHT30;58692;43.212;27.908;2022-09-20T10:19:09;29.70;23.34
71039;SHT30;58692;43.212;27.908;2022-09-20T10:30:09;30.00;22.39
71039;SHT30;58692;43.212;27.908;2022-09-20T10:32:57;30.12;22.38
71039;SHT30;58692;43.212;27.908;2022-09-20T10:38:15;30.11;22.10
71039;SHT30;58692;43.212;27.908;2022-09-20T10:41:06;29.70;22.68
71039;SHT30;58692;43.212;27.908;2022-09-20T10:46:45;29.55;22.66
71039;SHT30;58692;43.212;27.908;2022-09-20T10:54:53;29.23;23.32
71039;SHT30;58692;43.212;27.908;2022-09-20T11:03:21;29.80;23.07
71039;SHT30;58692;43.212;27.908;2022-09-20T11:06:06;30.35;22.57
71039;SHT30;58692;43.212;27.908;2022-09-20T11:08:37;30.33;22.67
71039;SHT30;58692;43.212;27.908;2022-09-20T11:11:17;30.15;22.99
71039;SHT30;58692;43.212;27.908;2022-09-20T11:14:14;29.81;23.01
71039;SHT30;58692;43.212;27.908;2022-09-20T11:16:54;29.53;22.73
71039;SHT30;58692;43.212;27.908;2022-09-20T11:19:34;29.97;22.29
71039;SHT30;58692;43.212;27.908;2022-09-20T11:24:39;29.16;23.95
71039;SHT30;58692;43.212;27.908;2022-09-20T11:30:00;29.65;24.05
71039;SHT30;58692;43.212;27.908;2022-09-20T11:32:36;29.16;24.07
71039;SHT30;58692;43.212;27.908;2022-09-20T11:35:27;29.31;24.37
71039;SHT30;58692;43.212;27.908;2022-09-20T11:40:48;29.44;24.25
71039;SHT30;58692;43.212;27.908;2022-09-20T11:43:15;29.46;24.09
71039;SHT30;58692;43.212;27.908;2022-09-20T11:45:44;29.27;24.05
71039;SHT30;58692;43.212;27.908;2022-09-20T11:48:29;30.04;23.10
71039;SHT30;58692;43.212;27.908;2022-09-20T11:51:24;30.09;23.29
71039;SHT30;58692;43.212;27.908;2022-09-20T11:56:49;29.34;24.05
71039;SHT30;58692;43.212;27.908;2022-09-20T11:59:32;29.20;24.59
71039;SHT30;58692;43.212;27.908;2022-09-20T12:02:02;29.72;24.30
71039;SHT30;58692;43.212;27.908;2022-09-20T12:04:33;29.67;23.95
71039;SHT30;58692;43.212;27.908;2022-09-20T12:07:14;29.61;24.19
71039;SHT30;58692;43.212;27.908;2022-09-20T12:09:45;29.44;23.57
71039;SHT30;58692;43.212;27.908;2022-09-20T12:15:03;28.96;24.74
71039;SHT30;58692;43.212;27.908;2022-09-20T12:21:07;29.09;24.27
71039;SHT30;58692;43.212;27.908;2022-09-20T12:23:42;29.37;24.22
71039;SHT30;58692;43.212;27.908;2022-09-20T12:34:03;29.31;24.33
71039;SHT30;58692;43.212;27.908;2022-09-20T12:39:36;27.53;25.68
71039;SHT30;58692;43.212;27.908;2022-09-20T12:42:28;27.29;26.18
71039;SHT30;58692;43.212;27.908;2022-09-20T12:44:59;26.44;26.96
71039;SHT30;58692;43.212;27.908;2022-09-20T12:47:31;25.76;27.70
71039;SHT30;58692;43.212;27.908;2022-09-20T12:50:00;25.43;28.78
71039;SHT30;58692;43.212;27.908;2022-09-20T12:58:00;24.98;28.86
71039;SHT30;58692;43.212;27.908;2022-09-20T13:00:35;24.57;29.33
71039;SHT30;58692;43.212;27.908;2022-09-20T13:03:22;24.45;29.49
71039;SHT30;58692;43.212;27.908;2022-09-20T13:06:20;24.12;29.22
71039;SHT30;58692;43.212;27.908;2022-09-20T13:08:51;23.89;30.07
71039;SHT30;58692;43.212;27.908;2022-09-20T13:16:21;23.87;30.18
71039;SHT30;58692;43.212;27.908;2022-09-20T13:18:57;23.83;30.12
71039;SHT30;58692;43.212;27.908;2022-09-20T13:21:24;23.93;29.85
71039;SHT30;58692;43.212;27.908;2022-09-20T13:23:52;23.93;30.13
71039;SHT30;58692;43.212;27.908;2022-09-20T13:26:24;23.96;30.19
71039;SHT30;58692;43.212;27.908;2022-09-20T13:28:54;23.90;30.32
71039;SHT30;58692;43.212;27.908;2022-09-20T13:33:46;23.89;30.31
71039;SHT30;58692;43.212;27.908;2022-09-20T13:36:12;23.86;30.34
71039;SHT30;58692;43.212;27.908;2022-09-20T13:38:38;23.83;30.38
71039;SHT30;58692;43.212;27.908;2022-09-20T13:41:07;23.66;30.65
71039;SHT30;58692;43.212;27.908;2022-09-20T13:43:36;23.69;30.41
71039;SHT30;58692;43.212;27.908;2022-09-20T13:46:13;23.48;30.69
71039;SHT30;58692;43.212;27.908;2022-09-20T13:48:43;23.28;30.79
71039;SHT30;58692;43.212;27.908;2022-09-20T13:51:23;23.12;31.12
71039;SHT30;58692;43.212;27.908;2022-09-20T13:53:49;22.90;31.75
71039;SHT30;58692;43.212;27.908;2022-09-20T13:56:24;22.94;32.09
71039;SHT30;58692;43.212;27.908;2022-09-20T13:58:52;23.12;31.77
71039;SHT30;58692;43.212;27.908;2022-09-20T14:01:29;22.97;31.99
71039;SHT30;58692;43.212;27.908;2022-09-20T14:04:14;23.09;31.64
71039;SHT30;58692;43.212;27.908;2022-09-20T14:06:40;23.15;31.46
71039;SHT30;58692;43.212;27.908;2022-09-20T14:09:12;23.07;31.55
71039;SHT30;58692;43.212;27.908;2022-09-20T14:11:43;22.98;31.80
71039;SHT30;58692;43.212;27.908;2022-09-20T14:14:12;23.04;32.14
71039;SHT30;58692;43.212;27.908;2022-09-20T14:16:40;23.16;31.85
71039;SHT30;58692;43.212;27.908;2022-09-20T14:19:13;23.31;32.19
71039;SHT30;58692;43.212;27.908;2022-09-20T14:21:40;23.04;32.05
71039;SHT30;58692;43.212;27.908;2022-09-20T14:24:25;23.09;32.01
71039;SHT30;58692;43.212;27.908;2022-09-20T14:27:14;22.91;32.12
71039;SHT30;58692;43.212;27.908;2022-09-20T14:37:17;22.90;32.28
71039;SHT30;58692;43.212;27.908;2022-09-20T14:39:54;22.98;32.73
71039;SHT30;58692;43.212;27.908;2022-09-20T14:42:38;23.22;31.44
71039;SHT30;58692;43.212;27.908;2022-09-20T14:45:06;23.37;31.48
71039;SHT30;58692;43.212;27.908;2022-09-20T14:47:38;23.31;31.61
71039;SHT30;58692;43.212;27.908;2022-09-20T14:50:40;23.04;31.59
71039;SHT30;58692;43.212;27.908;2022-09-20T14:53:24;23.14;31.46
71039;SHT30;58692;43.212;27.908;2022-09-20T14:56:06;22.97;31.44
71039;SHT30;58692;43.212;27.908;2022-09-20T15:01:35;22.61;31.45
71039;SHT30;58692;43.212;27.908;2022-09-20T15:04:18;22.61;31.45
71039;SHT30;58692;43.212;27.908;2022-09-20T15:06:49;22.56;31.85
71039;SHT30;58692;43.212;27.908;2022-09-20T15:09:17;22.67;31.64
71039;SHT30;58692;43.212;27.908;2022-09-20T15:11:44;22.57;31.91
71039;SHT30;58692;43.212;27.908;2022-09-20T15:14:09;22.35;32.61
71039;SHT30;58692;43.212;27.908;2022-09-20T15:16:35;22.20;33.10
71039;SHT30;58692;43.212;27.908;2022-09-20T15:19:01;22.27;32.41
71039;SHT30;58692;43.212;27.908;2022-09-20T15:21:29;22.10;33.13
71039;SHT30;58692;43.212;27.908;2022-09-20T15:23:57;22.16;32.26
71039;SHT30;58692;43.212;27.908;2022-09-20T15:26:22;22.10;32.74
71039;SHT30;58692;43.212;27.908;2022-09-20T15:28:48;22.20;32.46
71039;SHT30;58692;43.212;27.908;2022-09-20T15:31:14;22.26;32.58
71039;SHT30;58692;43.212;27.908;2022-09-20T15:33:41;22.21;32.50
71039;SHT30;58692;43.212;27.908;2022-09-20T15:36:07;22.18;32.93
71039;SHT30;58692;43.212;27.908;2022-09-20T15:38:33;22.12;33.24
71039;SHT30;58692;43.212;27.908;2022-09-20T15:41:00;22.06;33.38
71039;SHT30;58692;43.212;27.908;2022-09-20T15:43:28;22.14;33.55
71039;SHT30;58692;43.212;27.908;2022-09-20T15:45:57;22.27;33.58
71039;SHT30;58692;43.212;27.908;2022-09-20T15:48:26;22.13;33.79
71039;SHT30;58692;43.212;27.908;2022-09-20T15:51:01;22.17;33.48
71039;SHT30;58692;43.212;27.908;2022-09-20T15:53:29;22.12;33.20
71039;SHT30;58692;43.212;27.908;2022-09-20T15:55:56;21.88;33.65
71039;SHT30;58692;43.212;27.908;2022-09-20T15:58:25;21.66;34.02
71039;SHT30;58692;43.212;27.908;2022-09-20T16:00:51;21.76;33.71
71039;SHT30;58692;43.212;27.908;2022-09-20T16:03:17;21.74;34.19
71039;SHT30;58692;43.212;27.908;2022-09-20T16:05:42;21.72;34.00
71039;SHT30;58692;43.212;27.908;2022-09-20T16:08:08;21.54;33.88
71039;SHT30;58692;43.212;27.908;2022-09-20T16:10:33;21.66;33.90
71039;SHT30;58692;43.212;27.908;2022-09-20T16:12:59;21.74;33.80
71039;SHT30;58692;43.212;27.908;2022-09-20T16:15:25;21.82;33.93
71039;SHT30;58692;43.212;27.908;2022-09-20T16:17:50;21.41;34.29
71039;SHT30;58692;43.212;27.908;2022-09-20T16:20:31;21.38;34.51
71039;SHT30;58692;43.212;27.908;2022-09-20T16:22:56;21.44;34.48
71039;SHT30;58692;43.212;27.908;2022-09-20T16:25:22;21.44;34.85
71039;SHT30;58692;43.212;27.908;2022-09-20T16:27:47;21.41;34.53
71039;SHT30;58692;43.212;27.908;2022-09-20T16:30:13;21.46;34.54
71039;SHT30;58692;43.212;27.908;2022-09-20T16:32:39;21.46;34.56
71039;SHT30;58692;43.212;27.908;2022-09-20T16:35:05;21.49;34.51
71039;SHT30;58692;43.212;27.908;2022-09-20T16:37:31;21.48;34.53
71039;SHT30;58692;43.212;27.908;2022-09-20T16:39:58;21.42;35.05
71039;SHT30;58692;43.212;27.908;2022-09-20T16:42:24;21.49;34.88
71039;SHT30;58692;43.212;27.908;2022-09-20T16:44:49;21.34;35.32
71039;SHT30;58692;43.212;27.908;2022-09-20T16:47:15;21.42;35.40
71039;SHT30;58692;43.212;27.908;2022-09-20T16:49:46;21.48;35.21
71039;SHT30;58692;43.212;27.908;2022-09-20T16:52:12;21.48;35.07
71039;SHT30;58692;43.212;27.908;2022-09-20T16:54:37;21.37;35.27
71039;SHT30;58692;43.212;27.908;2022-09-20T16:57:03;21.32;35.41
71039;SHT30;58692;43.212;27.908;2022-09-20T16:59:29;21.27;35.56
71039;SHT30;58692;43.212;27.908;2022-09-20T17:01:55;21.22;35.95
71039;SHT30;58692;43.212;27.908;2022-09-20T17:04:21;21.24;35.95
71039;SHT30;58692;43.212;27.908;2022-09-20T17:06:48;21.17;36.05
71039;SHT30;58692;43.212;27.908;2022-09-20T17:09:14;21.18;36.14
71039;SHT30;58692;43.212;27.908;2022-09-20T17:11:42;21.10;36.25
71039;SHT30;58692;43.212;27.908;2022-09-20T17:14:14;21.03;36.55
71039;SHT30;58692;43.212;27.908;2022-09-20T17:16:41;20.95;36.42
71039;SHT30;58692;43.212;27.908;2022-09-20T17:19:10;20.95;36.51
71039;SHT30;58692;43.212;27.908;2022-09-20T17:21:38;20.91;36.72
71039;SHT30;58692;43.212;27.908;2022-09-20T17:24:05;20.87;37.40
71039;SHT30;58692;43.212;27.908;2022-09-20T17:26:35;20.85;37.32
71039;SHT30;58692;43.212;27.908;2022-09-20T17:29:04;20.81;37.04
71039;SHT30;58692;43.212;27.908;2022-09-20T17:31:33;20.77;36.81
71039;SHT30;58692;43.212;27.908;2022-09-20T17:33:59;20.77;36.88
71039;SHT30;58692;43.212;27.908;2022-09-20T17:36:28;20.71;37.67
71039;SHT30;58692;43.212;27.908;2022-09-20T17:38:56;20.64;37.77
71039;SHT30;58692;43.212;27.908;2022-09-20T17:41:22;20.50;37.94
71039;SHT30;58692;43.212;27.908;2022-09-20T17:43:55;20.26;38.44
71039;SHT30;58692;43.212;27.908;2022-09-20T17:46:23;20.37;38.17
71039;SHT30;58692;43.212;27.908;2022-09-20T17:48:53;20.30;38.11
71039;SHT30;58692;43.212;27.908;2022-09-20T17:51:21;20.37;39.00
71039;SHT30;58692;43.212;27.908;2022-09-20T17:53:47;20.37;39.97
71039;SHT30;58692;43.212;27.908;2022-09-20T17:56:13;20.33;40.17
71039;SHT30;58692;43.212;27.908;2022-09-20T17:58:40;20.30;40.73
71039;SHT30;58692;43.212;27.908;2022-09-20T18:03:35;20.04;42.15
71039;SHT30;58692;43.212;27.908;2022-09-20T18:06:11;20.02;43.38
71039;SHT30;58692;43.212;27.908;2022-09-20T18:08:38;19.98;43.65
71039;SHT30;58692;43.212;27.908;2022-09-20T18:11:03;19.99;44.30
71039;SHT30;58692;43.212;27.908;2022-09-20T18:13:29;19.90;45.11
71039;SHT30;58692;43.212;27.908;2022-09-20T18:15:55;19.74;45.88
71039;SHT30;58692;43.212;27.908;2022-09-20T18:18:21;19.51;46.01
71039;SHT30;58692;43.212;27.908;2022-09-20T18:20:47;19.57;45.44
71039;SHT30;58692;43.212;27.908;2022-09-20T18:23:13;19.54;45.58
71039;SHT30;58692;43.212;27.908;2022-09-20T18:25:39;19.48;46.47
71039;SHT30;58692;43.212;27.908;2022-09-20T18:28:20;19.43;47.14
71039;SHT30;58692;43.212;27.908;2022-09-20T18:30:45;19.30;47.71
71039;SHT30;58692;43.212;27.908;2022-09-20T18:33:11;19.26;48.12
71039;SHT30;58692;43.212;27.908;2022-09-20T18:35:37;19.34;48.29
71039;SHT30;58692;43.212;27.908;2022-09-20T18:38:06;19.21;48.35
71039;SHT30;58692;43.212;27.908;2022-09-20T18:40:32;19.20;47.78
71039;SHT30;58692;43.212;27.908;2022-09-20T18:43:00;19.24;46.81
71039;SHT30;58692;43.212;27.908;2022-09-20T18:45:26;19.21;46.36
71039;SHT30;58692;43.212;27.908;2022-09-20T18:47:52;19.17;45.31
71039;SHT30;58692;43.212;27.908;2022-09-20T18:50:21;19.23;45.23
71039;SHT30;58692;43.212;27.908;2022-09-20T18:52:48;19.23;45.22
71039;SHT30;58692;43.212;27.908;2022-09-20T18:55:15;19.18;45.12
71039;SHT30;58692;43.212;27.908;2022-09-20T18:57:41;19.17;45.01
71039;SHT30;58692;43.212;27.908;2022-09-20T19:00:10;19.16;44.79
71039;SHT30;58692;43.212;27.908;2022-09-20T19:05:28;19.06;44.52
71039;SHT30;58692;43.212;27.908;2022-09-20T19:10:50;19.16;44.70
71039;SHT30;58692;43.212;27.908;2022-09-20T19:13:42;19.04;44.84
71039;SHT30;58692;43.212;27.908;2022-09-20T19:16:22;18.99;44.47
71039;SHT30;58692;43.212;27.908;2022-09-20T19:21:56;18.94;44.98
71039;SHT30;58692;43.212;27.908;2022-09-20T19:27:16;18.82;45.83
71039;SHT30;58692;43.212;27.908;2022-09-20T19:29:42;18.79;45.75
71039;SHT30;58692;43.212;27.908;2022-09-20T19:32:14;18.77;45.54
71039;SHT30;58692;43.212;27.908;2022-09-20T19:34:42;18.80;45.61
71039;SHT30;58692;43.212;27.908;2022-09-20T19:37:15;18.74;46.09
71039;SHT30;58692;43.212;27.908;2022-09-20T19:40:12;18.65;46.68
71039;SHT30;58692;43.212;27.908;2022-09-20T19:45:46;18.56;47.55
71039;SHT30;58692;43.212;27.908;2022-09-20T19:48:37;18.57;47.79
71039;SHT30;58692;43.212;27.908;2022-09-20T19:51:06;18.43;48.78
71039;SHT30;58692;43.212;27.908;2022-09-20T19:53:34;18.45;49.45
71039;SHT30;58692;43.212;27.908;2022-09-20T19:56:24;18.43;49.93
71039;SHT30;58692;43.212;27.908;2022-09-20T19:58:53;18.42;50.31
71039;SHT30;58692;43.212;27.908;2022-09-20T20:01:21;18.39;50.77
71039;SHT30;58692;43.212;27.908;2022-09-20T20:03:49;18.31;51.41